Time;durP1;ratioP1;P1;durP2;ratioP2;P2;SDS_P1;SDS_P2;PMS_P1;PMS_P2;Temp;Humidity;BMP_temperature;BMP_pressure;BME280_temperature;BME280_humidity;BME280_pressure;Samples;Min_cycle;Max_cycle;Signal;HPM_P1;HPM_P2
2022/10/31 00:02:11;;;;;;;20.80;3.00;;;11.50;99.90;;;;;;4947661;28;20019;-95
2022/10/31 00:04:36;;;;;;;19.35;3.33;;;11.40;99.90;;;;;;4962195;28;20043;-94
2022/10/31 00:07:02;;;;;;;24.38;3.70;;;11.40;99.90;;;;;;4948720;28;20015;-94
2022/10/31 00:09:28;;;;;;;18.08;2.90;;;11.40;99.90;;;;;;4961597;28;20061;-94
2022/10/31 00:11:53;;;;;;;28.65;3.53;;;11.40;99.90;;;;;;4951268;28;20023;-93
2022/10/31 00:14:19;;;;;;;19.20;2.78;;;11.40;99.90;;;;;;4967815;28;20130;-93
2022/10/31 00:16:45;;;;;;;15.20;2.90;;;11.40;99.90;;;;;;4959913;28;20031;-94
2022/10/31 00:19:10;;;;;;;23.58;2.88;;;11.40;99.90;;;;;;4956946;28;20038;-95
2022/10/31 00:21:36;;;;;;;21.20;3.67;;;11.40;99.90;;;;;;4972848;28;20058;-94
2022/10/31 00:24:03;;;;;;;22.38;3.22;;;11.40;99.90;;;;;;4975366;28;20042;-94
2022/10/31 00:26:29;;;;;;;21.40;2.90;;;11.40;99.90;;;;;;4962644;28;20019;-95
2022/10/31 00:28:56;;;;;;;21.85;2.88;;;11.30;99.90;;;;;;4956490;28;20034;-94
2022/10/31 00:31:22;;;;;;;24.25;3.17;;;11.30;99.90;;;;;;4956667;28;20350;-95
2022/10/31 00:33:47;;;;;;;23.83;2.97;;;11.40;99.90;;;;;;4955402;28;20054;-95
2022/10/31 00:36:15;;;;;;;18.88;3.58;;;11.30;99.90;;;;;;4955684;28;20026;-95
2022/10/31 00:38:42;;;;;;;13.32;2.75;;;11.30;99.90;;;;;;4971752;28;20070;-94
2022/10/31 00:41:08;;;;;;;9.13;2.72;;;11.30;99.90;;;;;;4955762;28;20034;-93
2022/10/31 00:43:34;;;;;;;15.80;3.08;;;11.30;99.90;;;;;;4955995;28;20022;-95
2022/10/31 00:46:00;;;;;;;20.35;2.78;;;11.30;99.90;;;;;;4955410;28;20071;-94
2022/10/31 00:48:26;;;;;;;22.65;4.00;;;11.30;99.90;;;;;;4955577;28;20093;-92
2022/10/31 00:50:52;;;;;;;15.13;2.63;;;11.20;99.90;;;;;;4955383;28;20038;-93
2022/10/31 00:53:17;;;;;;;20.75;3.40;;;11.20;99.90;;;;;;4955998;28;20027;-94
2022/10/31 00:55:43;;;;;;;21.20;3.65;;;11.20;99.90;;;;;;4971499;28;20408;-94
2022/10/31 00:58:09;;;;;;;22.98;2.95;;;11.20;99.90;;;;;;4955522;28;20031;-94
2022/10/31 01:00:34;;;;;;;19.23;3.25;;;11.20;99.90;;;;;;4955397;28;20031;-94
2022/10/31 01:03:00;;;;;;;26.13;3.38;;;11.20;99.90;;;;;;4955433;28;20050;-93
2022/10/31 01:05:26;;;;;;;29.67;4.65;;;11.20;99.90;;;;;;4971588;28;20050;-94
2022/10/31 01:07:52;;;;;;;22.65;3.08;;;11.20;99.90;;;;;;4955991;28;20055;-93
2022/10/31 01:10:18;;;;;;;12.50;2.90;;;11.20;99.90;;;;;;4955913;28;20027;-93
2022/10/31 01:12:46;;;;;;;25.25;2.85;;;11.20;99.90;;;;;;4956000;28;20055;-94
2022/10/31 01:15:14;;;;;;;20.20;3.17;;;11.20;99.90;;;;;;4955660;28;20085;-95
2022/10/31 01:17:39;;;;;;;24.10;3.20;;;11.20;99.90;;;;;;4955335;28;20033;-93
2022/10/31 01:20:07;;;;;;;21.35;3.03;;;11.20;99.90;;;;;;4971598;28;20043;-93
2022/10/31 01:22:33;;;;;;;22.15;3.45;;;11.20;99.90;;;;;;4955151;28;20026;-94
2022/10/31 01:24:58;;;;;;;14.73;3.97;;;11.20;99.90;;;;;;4955511;28;20136;-92
2022/10/31 01:27:24;;;;;;;16.95;3.70;;;11.20;99.90;;;;;;4955522;28;20026;-95
2022/10/31 01:29:50;;;;;;;15.75;3.22;;;11.20;99.90;;;;;;4955773;28;20117;-94
2022/10/31 01:32:16;;;;;;;20.63;2.88;;;11.10;99.90;;;;;;4955739;28;20034;-93
2022/10/31 01:34:41;;;;;;;32.03;3.80;;;11.10;99.90;;;;;;4957299;28;20062;-94
2022/10/31 01:37:07;;;;;;;15.02;3.13;;;11.10;99.90;;;;;;4958550;28;20125;-94
2022/10/31 01:39:32;;;;;;;16.00;3.20;;;11.10;99.90;;;;;;4958484;28;20039;-93
2022/10/31 01:41:58;;;;;;;27.42;3.45;;;11.10;99.90;;;;;;4958335;28;20052;-94
2022/10/31 01:44:24;;;;;;;23.58;3.60;;;11.10;99.90;;;;;;4958413;28;20045;-94
2022/10/31 01:46:58;;;;;;;22.75;3.25;;;11.10;99.90;;;;;;4958149;28;20023;-94
2022/10/31 01:49:28;;;;;;;25.85;4.20;;;11.20;99.90;;;;;;4958882;28;20045;-94
2022/10/31 01:52:09;;;;;;;23.33;4.97;;;11.10;99.90;;;;;;4958371;28;20023;-94
2022/10/31 01:54:40;;;;;;;25.63;4.25;;;11.20;99.90;;;;;;4967153;28;20043;-93
2022/10/31 01:57:08;;;;;;;27.40;4.10;;;11.20;99.90;;;;;;4939219;28;20039;-94
2022/10/31 01:59:40;;;;;;;26.60;3.33;;;11.20;99.90;;;;;;4939270;29;20197;-94
2022/10/31 02:02:06;;;;;;;24.30;3.78;;;11.20;99.90;;;;;;4938866;29;20034;-92
2022/10/31 02:04:33;;;;;;;30.77;5.22;;;11.20;99.90;;;;;;4938661;29;20035;-93
2022/10/31 02:07:07;;;;;;;17.67;3.22;;;11.20;99.90;;;;;;4939086;29;20058;-93
2022/10/31 02:09:35;;;;;;;21.35;3.40;;;11.20;99.90;;;;;;4938275;28;20054;-93
2022/10/31 02:12:01;;;;;;;24.55;4.50;;;11.10;99.90;;;;;;4939314;29;20033;-95
2022/10/31 02:14:30;;;;;;;23.98;3.25;;;11.10;99.90;;;;;;4938992;29;20114;-94
2022/10/31 02:16:56;;;;;;;27.27;3.90;;;11.10;99.90;;;;;;4939514;29;20035;-95
2022/10/31 02:19:39;;;;;;;19.65;3.20;;;11.20;99.90;;;;;;4946327;29;20082;-94
2022/10/31 02:22:42;;;;;;;25.30;4.70;;;11.20;99.90;;;;;;4957922;28;20038;-93
2022/10/31 02:25:26;;;;;;;34.47;4.72;;;11.20;99.90;;;;;;4896892;29;20123;-95
2022/10/31 02:28:01;;;;;;;26.23;3.20;;;11.20;99.90;;;;;;4897359;29;20037;-93
2022/10/31 02:30:58;;;;;;;27.48;3.63;;;11.20;99.90;;;;;;4880909;29;20100;-94
2022/10/31 02:33:43;;;;;;;18.50;3.70;;;11.30;99.90;;;;;;4880721;29;20056;-94
2022/10/31 02:36:34;;;;;;;30.23;3.22;;;11.30;99.90;;;;;;4881476;29;20032;-93
2022/10/31 02:39:18;;;;;;;;;;;11.30;99.90;;;;;;4880450;29;20036;-94
2022/10/31 02:42:02;;;;;;;24.27;5.22;;;11.40;99.90;;;;;;4896177;29;19907;-94
2022/10/31 02:44:39;;;;;;;25.58;2.67;;;11.40;99.90;;;;;;4879817;29;20044;-95
2022/10/31 02:47:29;;;;;;;29.10;4.32;;;11.40;99.90;;;;;;4880587;29;20040;-94
2022/10/31 02:50:02;;;;;;;27.55;3.50;;;11.40;99.90;;;;;;4880574;29;20550;-93
2022/10/31 02:52:30;;;;;;;26.65;3.55;;;11.40;99.90;;;;;;4880676;29;20111;-94
2022/10/31 02:54:56;;;;;;;28.77;3.97;;;11.50;99.90;;;;;;4891283;29;20052;-95
2022/10/31 02:57:29;;;;;;;22.05;3.35;;;11.40;99.90;;;;;;4899153;29;20028;-95
2022/10/31 03:00:02;;;;;;;24.40;3.20;;;11.50;99.90;;;;;;4907375;29;20055;-93
2022/10/31 03:02:40;;;;;;;19.30;2.95;;;11.50;99.90;;;;;;4938067;29;20114;-94
2022/10/31 03:05:06;;;;;;;22.13;3.20;;;11.50;99.90;;;;;;4954141;28;20082;-94
2022/10/31 03:07:54;;;;;;;20.90;3.85;;;11.50;99.90;;;;;;4953623;28;20055;-95
2022/10/31 03:10:27;;;;;;;29.63;3.53;;;11.40;99.90;;;;;;4953837;28;20027;-94
2022/10/31 03:13:18;;;;;;;22.65;3.33;;;11.40;99.90;;;;;;4937430;29;20050;-93
2022/10/31 03:15:48;;;;;;;32.70;4.88;;;11.40;99.90;;;;;;4953658;28;20122;-94
2022/10/31 03:18:23;;;;;;;21.13;3.03;;;11.40;99.90;;;;;;4937938;29;20027;-95
2022/10/31 03:20:55;;;;;;;27.75;3.83;;;11.40;99.90;;;;;;4938073;29;20027;-93
2022/10/31 03:23:24;;;;;;;25.15;3.65;;;11.40;99.90;;;;;;4937836;29;20055;-93
2022/10/31 03:25:53;;;;;;;23.98;4.20;;;11.40;99.90;;;;;;4937682;29;20027;-94
2022/10/31 03:28:27;;;;;;;31.98;3.72;;;11.30;99.90;;;;;;4937636;29;20034;-95
2022/10/31 03:30:54;;;;;;;27.75;4.10;;;11.30;99.90;;;;;;4938616;28;20051;-93
2022/10/31 03:33:30;;;;;;;33.45;4.13;;;11.30;99.90;;;;;;4953573;29;20035;-96
2022/10/31 03:35:59;;;;;;;24.73;3.45;;;11.30;99.90;;;;;;4938142;29;20023;-93
2022/10/31 03:38:25;;;;;;;30.77;5.05;;;11.30;99.90;;;;;;4938417;29;20078;-95
2022/10/31 03:40:53;;;;;;;28.88;4.28;;;11.30;99.90;;;;;;4954456;28;20090;-95
2022/10/31 03:43:32;;;;;;;23.27;3.55;;;11.30;99.90;;;;;;4942521;29;20189;-95
2022/10/31 03:45:58;;;;;;;29.55;3.40;;;11.30;99.90;;;;;;4940486;29;20024;-95
2022/10/31 03:48:24;;;;;;;29.27;3.50;;;11.30;99.90;;;;;;4937394;29;20165;-93
2022/10/31 03:50:58;;;;;;;24.30;2.85;;;11.30;99.90;;;;;;4936661;29;20086;-94
2022/10/31 03:53:50;;;;;;;27.40;4.20;;;11.40;99.90;;;;;;4937612;29;20087;-96
2022/10/31 03:56:29;;;;;;;31.50;3.85;;;11.40;99.90;;;;;;4971785;28;20094;-93
2022/10/31 03:59:00;;;;;;;22.90;3.10;;;11.40;99.90;;;;;;4956502;28;20062;-93
2022/10/31 04:01:29;;;;;;;25.13;3.50;;;11.50;99.90;;;;;;4972588;28;20070;-95
2022/10/31 04:03:57;;;;;;;27.30;3.08;;;11.50;99.90;;;;;;4956513;28;20023;-95
2022/10/31 04:06:24;;;;;;;30.85;3.25;;;11.50;99.90;;;;;;4956330;28;20018;-93
2022/10/31 04:08:54;;;;;;;28.33;3.47;;;11.50;99.90;;;;;;4973484;28;20035;-95
2022/10/31 04:11:24;;;;;;;19.95;2.78;;;11.50;99.90;;;;;;4957112;28;20023;-93
2022/10/31 04:13:52;;;;;;;20.50;3.00;;;11.50;99.90;;;;;;4957192;28;20039;-95
2022/10/31 04:16:19;;;;;;;27.00;2.90;;;11.50;99.90;;;;;;4963349;28;20118;-93
2022/10/31 04:18:45;;;;;;;22.00;2.80;;;11.50;99.90;;;;;;4962168;28;20034;-93
2022/10/31 04:21:10;;;;;;;17.38;3.20;;;11.50;99.90;;;;;;4956030;28;20019;-94
2022/10/31 04:23:36;;;;;;;25.92;2.95;;;11.50;99.90;;;;;;4954412;28;20026;-95
2022/10/31 04:26:02;;;;;;;22.02;3.28;;;11.50;99.90;;;;;;4956231;28;20192;-92
2022/10/31 04:28:28;;;;;;;28.05;3.25;;;11.50;99.90;;;;;;4972437;28;20023;-92
2022/10/31 04:30:54;;;;;;;35.60;4.72;;;11.60;99.90;;;;;;4956265;28;20037;-95
2022/10/31 04:33:20;;;;;;;25.75;2.60;;;11.60;99.90;;;;;;4956246;28;20117;-93
2022/10/31 04:35:46;;;;;;;26.67;3.55;;;11.60;99.90;;;;;;4956125;28;20552;-94
2022/10/31 04:38:12;;;;;;;25.45;3.17;;;11.60;99.90;;;;;;4955869;28;20034;-92
2022/10/31 04:40:38;;;;;;;19.17;2.78;;;11.60;99.90;;;;;;4955712;28;20026;-94
2022/10/31 04:43:03;;;;;;;24.02;3.33;;;11.60;99.90;;;;;;4955885;28;20050;-94
2022/10/31 04:45:29;;;;;;;26.55;3.15;;;11.60;99.90;;;;;;4955949;28;20033;-95
2022/10/31 04:47:55;;;;;;;18.33;2.75;;;11.60;99.90;;;;;;4955515;28;20027;-96
2022/10/31 04:50:20;;;;;;;30.83;5.03;;;11.60;99.90;;;;;;4956023;28;20117;-93
2022/10/31 04:52:46;;;;;;;18.70;2.95;;;11.60;99.90;;;;;;4956337;28;20078;-95
2022/10/31 04:55:13;;;;;;;18.15;2.70;;;11.70;99.90;;;;;;4941659;29;20051;-94
2022/10/31 04:57:47;;;;;;;22.08;3.80;;;11.60;99.90;;;;;;4936781;29;20481;-95
2022/10/31 05:00:15;;;;;;;19.00;3.38;;;11.60;99.90;;;;;;4937073;29;20126;-95
2022/10/31 05:02:47;;;;;;;25.63;4.10;;;11.60;99.90;;;;;;4952799;28;20023;-94
2022/10/31 05:05:17;;;;;;;28.55;3.65;;;11.50;99.90;;;;;;4937171;29;20028;-96
2022/10/31 05:07:44;;;;;;;22.20;3.40;;;11.50;99.90;;;;;;4938345;29;20023;-95
2022/10/31 05:10:12;;;;;;;24.48;4.05;;;11.50;99.90;;;;;;4940468;29;20038;-96
2022/10/31 05:12:44;;;;;;;22.20;3.92;;;11.50;99.90;;;;;;4939913;29;20027;-94
2022/10/31 05:15:10;;;;;;;27.65;3.60;;;11.50;99.90;;;;;;4940352;28;20102;-95
2022/10/31 05:17:36;;;;;;;28.42;3.72;;;11.40;99.90;;;;;;4940218;29;20031;-93
2022/10/31 05:20:01;;;;;;;31.00;3.28;;;11.40;99.90;;;;;;4956161;28;20493;-94
2022/10/31 05:22:27;;;;;;;27.15;3.13;;;11.40;99.90;;;;;;4940436;29;20031;-95
2022/10/31 05:24:53;;;;;;;19.23;2.67;;;11.40;99.90;;;;;;4940137;29;20476;-93
2022/10/31 05:27:18;;;;;;;20.95;3.17;;;11.40;99.90;;;;;;4939530;28;20027;-94
2022/10/31 05:29:44;;;;;;;23.15;3.20;;;11.40;99.90;;;;;;4940486;29;20031;-95
2022/10/31 05:32:10;;;;;;;26.10;3.20;;;11.50;99.90;;;;;;4939574;29;20573;-94
2022/10/31 05:34:35;;;;;;;26.42;3.83;;;11.50;99.90;;;;;;4940762;29;20536;-94
2022/10/31 05:37:01;;;;;;;19.42;2.63;;;11.40;99.90;;;;;;4941050;29;20397;-95
2022/10/31 05:39:27;;;;;;;24.60;4.05;;;11.50;99.90;;;;;;4941192;29;20071;-95
2022/10/31 05:41:52;;;;;;;18.23;3.22;;;11.50;99.90;;;;;;4943219;28;20086;-93
2022/10/31 05:44:18;;;;;;;23.23;3.70;;;11.50;99.90;;;;;;4944789;28;20219;-94
2022/10/31 05:46:45;;;;;;;25.25;3.95;;;11.50;99.90;;;;;;4944370;29;20053;-93
2022/10/31 05:49:11;;;;;;;23.02;3.03;;;11.50;99.90;;;;;;4955763;29;20039;-94
2022/10/31 05:51:36;;;;;;;22.17;3.28;;;11.60;99.90;;;;;;4954426;29;20034;-93
2022/10/31 05:54:02;;;;;;;15.38;2.47;;;11.60;99.90;;;;;;4954544;28;20644;-93
2022/10/31 05:56:28;;;;;;;22.42;4.35;;;11.60;99.90;;;;;;4940435;28;20023;-95
2022/10/31 05:58:54;;;;;;;25.92;3.58;;;11.60;99.90;;;;;;4939814;29;20114;-93
2022/10/31 06:01:19;;;;;;;18.85;2.50;;;11.60;99.90;;;;;;4939265;29;20023;-95
2022/10/31 06:03:45;;;;;;;23.25;2.92;;;11.60;99.90;;;;;;4939591;29;20038;-95
2022/10/31 06:06:11;;;;;;;15.90;2.85;;;11.70;99.90;;;;;;4940015;29;20464;-94
2022/10/31 06:08:37;;;;;;;18.83;2.53;;;11.70;99.90;;;;;;4939743;29;20046;-92
2022/10/31 06:11:02;;;;;;;23.08;4.53;;;11.70;99.90;;;;;;4957124;28;20501;-94
2022/10/31 06:13:28;;;;;;;20.05;2.80;;;11.70;99.90;;;;;;4943870;28;20110;-93
2022/10/31 06:15:54;;;;;;;19.23;2.72;;;11.70;99.90;;;;;;4940878;29;20055;-95
2022/10/31 06:18:19;;;;;;;21.15;2.58;;;11.80;99.90;;;;;;4939249;29;20032;-95
2022/10/31 06:20:45;;;;;;;16.05;2.92;;;11.80;99.90;;;;;;4939057;29;20027;-95
2022/10/31 06:23:11;;;;;;;18.63;2.63;;;11.80;99.90;;;;;;4939906;29;20038;-94
2022/10/31 06:25:37;;;;;;;12.85;2.58;;;11.80;99.90;;;;;;4939883;28;20023;-94
2022/10/31 06:28:02;;;;;;;13.38;2.42;;;11.80;99.90;;;;;;4956198;28;20035;-94
2022/10/31 06:30:28;;;;;;;20.63;3.38;;;11.80;99.90;;;;;;4938895;29;20030;-94
2022/10/31 06:32:54;;;;;;;13.18;1.83;;;11.80;99.90;;;;;;4938915;29;20023;-94
2022/10/31 06:35:20;;;;;;;13.70;1.92;;;11.80;99.90;;;;;;4938593;29;20106;-94
2022/10/31 06:37:55;;;;;;;22.48;2.65;;;11.80;99.90;;;;;;4938132;29;20135;-95
2022/10/31 06:40:21;;;;;;;16.38;2.42;;;11.80;99.90;;;;;;4931612;28;20079;-94
2022/10/31 06:42:47;;;;;;;27.92;3.30;;;11.70;99.90;;;;;;4954659;28;20433;-93
2022/10/31 06:45:13;;;;;;;17.63;2.50;;;11.80;99.90;;;;;;4954717;28;20374;-94
2022/10/31 06:47:38;;;;;;;24.15;2.35;;;11.80;99.90;;;;;;4938208;29;20024;-94
2022/10/31 06:50:05;;;;;;;15.77;2.95;;;11.80;99.90;;;;;;4939758;29;20030;-94
2022/10/31 06:52:30;;;;;;;17.83;2.08;;;11.80;99.90;;;;;;4941386;29;20031;-93
2022/10/31 06:54:56;;;;;;;18.23;2.78;;;11.80;99.90;;;;;;4950588;28;20073;-94
2022/10/31 06:57:22;;;;;;;20.10;2.55;;;11.80;99.90;;;;;;4959463;28;20081;-93
2022/10/31 06:59:47;;;;;;;17.95;3.75;;;11.80;99.90;;;;;;4960280;28;20038;-93
2022/10/31 07:02:13;;;;;;;15.50;3.15;;;11.80;99.90;;;;;;4963409;28;20023;-93
2022/10/31 07:04:39;;;;;;;19.77;3.70;;;11.80;99.90;;;;;;4958358;28;20031;-94
2022/10/31 07:07:04;;;;;;;15.10;3.05;;;11.70;99.90;;;;;;4959827;28;20015;-93
2022/10/31 07:09:30;;;;;;;21.60;3.05;;;11.80;99.90;;;;;;4964588;28;20030;-94
2022/10/31 07:11:56;;;;;;;23.17;3.35;;;11.80;99.90;;;;;;4967889;28;20420;-95
2022/10/31 07:14:22;;;;;;;19.17;2.88;;;11.80;99.90;;;;;;4969415;28;20520;-94
2022/10/31 07:16:51;;;;;;;18.45;3.05;;;11.80;99.90;;;;;;4984737;28;20147;-94
2022/10/31 07:19:17;;;;;;;20.48;4.35;;;11.80;99.90;;;;;;4966181;28;20234;-95
2022/10/31 07:21:43;;;;;;;21.58;4.47;;;11.80;99.90;;;;;;4971904;28;20046;-93
2022/10/31 07:24:11;;;;;;;19.08;2.80;;;11.80;99.90;;;;;;4969453;28;20026;-95
2022/10/31 07:26:36;;;;;;;25.23;3.00;;;11.80;99.90;;;;;;4986788;28;20093;-93
2022/10/31 07:29:02;;;;;;;21.02;3.15;;;11.80;99.90;;;;;;4957375;28;20031;-95
2022/10/31 07:31:28;;;;;;;17.00;2.53;;;11.80;99.90;;;;;;4944857;28;20540;-94
2022/10/31 07:33:53;;;;;;;16.77;2.72;;;11.70;99.90;;;;;;4957356;28;20544;-94
2022/10/31 07:36:19;;;;;;;15.15;2.75;;;11.80;99.90;;;;;;4974821;28;20519;-93
2022/10/31 07:38:45;;;;;;;19.60;2.60;;;11.80;99.90;;;;;;4956829;28;20027;-95
2022/10/31 07:41:11;;;;;;;14.63;2.65;;;11.80;99.90;;;;;;4957288;28;20023;-95
2022/10/31 07:43:47;;;;;;;;;;;;;;;;;;;;;
2022/10/31 07:46:13;;;;;;;32.95;2.78;;;11.90;99.90;;;;;;4972274;28;20015;-94
2022/10/31 07:48:39;;;;;;;18.45;2.55;;;11.90;99.90;;;;;;4956280;28;20117;-92
2022/10/31 07:51:06;;;;;;;24.33;2.92;;;11.90;99.90;;;;;;4973540;28;20392;-95
2022/10/31 07:53:32;;;;;;;19.30;2.42;;;11.90;99.90;;;;;;4960647;28;20018;-94
2022/10/31 07:55:58;;;;;;;16.52;2.17;;;11.90;99.90;;;;;;4947905;29;20118;-94
2022/10/31 07:58:25;;;;;;;13.48;2.95;;;11.90;99.90;;;;;;4942281;29;20392;-94
2022/10/31 08:00:51;;;;;;;25.23;4.57;;;11.90;99.90;;;;;;4939738;29;20118;-94
2022/10/31 08:03:18;;;;;;;17.67;2.60;;;11.90;99.90;;;;;;4939498;29;20078;-95
2022/10/31 08:05:47;;;;;;;24.30;3.22;;;11.90;99.90;;;;;;4956838;28;20019;-95
2022/10/31 08:08:16;;;;;;;18.90;2.58;;;12.00;99.90;;;;;;4953174;28;20027;-94
2022/10/31 08:10:42;;;;;;;20.47;2.20;;;12.00;99.90;;;;;;4937525;29;20070;-95
2022/10/31 08:13:10;;;;;;;20.75;2.67;;;12.00;99.90;;;;;;4936228;29;20034;-94
2022/10/31 08:15:39;;;;;;;18.10;1.98;;;12.00;99.90;;;;;;4929992;29;20031;-96
2022/10/31 08:18:06;;;;;;;13.07;2.10;;;12.00;99.90;;;;;;4934201;29;20573;-93
2022/10/31 08:20:32;;;;;;;19.42;2.30;;;12.10;99.90;;;;;;4953322;28;20122;-96
2022/10/31 08:23:05;;;;;;;19.10;2.25;;;12.10;99.90;;;;;;4937193;29;20494;-95
2022/10/31 08:25:33;;;;;;;23.23;2.83;;;12.10;99.90;;;;;;4928895;29;20058;-95
2022/10/31 08:28:02;;;;;;;16.77;2.60;;;12.10;99.90;;;;;;4932651;29;20110;-96
2022/10/31 08:30:31;;;;;;;17.30;2.35;;;12.10;99.90;;;;;;4929027;29;20043;-95
2022/10/31 08:33:11;;;;;;;18.17;2.58;;;12.10;99.90;;;;;;4927632;29;20091;-96
2022/10/31 08:35:37;;;;;;;21.50;3.03;;;12.10;99.90;;;;;;4942332;29;20502;-96
2022/10/31 08:38:04;;;;;;;11.82;1.90;;;12.10;99.90;;;;;;4925798;29;20020;-95
2022/10/31 08:40:34;;;;;;;17.77;2.15;;;12.10;99.90;;;;;;4930114;29;20170;-95
2022/10/31 08:43:10;;;;;;;;;;;12.10;99.90;;;;;;4930445;29;20047;-95
2022/10/31 08:45:36;;;;;;;14.85;2.20;;;12.20;99.90;;;;;;4958673;28;19913;-93
2022/10/31 08:48:04;;;;;;;15.02;2.30;;;12.20;99.90;;;;;;4936082;29;20028;-94
2022/10/31 08:50:32;;;;;;;21.33;2.42;;;12.20;99.90;;;;;;4949142;28;20078;-96
2022/10/31 08:53:03;;;;;;;26.33;3.70;;;12.20;99.90;;;;;;4931807;29;20478;-95
2022/10/31 08:55:28;;;;;;;19.88;2.80;;;12.20;99.90;;;;;;4935260;29;20146;-93
2022/10/31 08:57:56;;;;;;;16.95;2.25;;;12.30;99.90;;;;;;4936432;28;20569;-95
2022/10/31 09:00:22;;;;;;;19.85;2.17;;;12.30;99.90;;;;;;4940073;29;20023;-95
2022/10/31 09:02:48;;;;;;;15.10;2.08;;;12.40;99.90;;;;;;4937944;29;20491;-95
2022/10/31 09:05:14;;;;;;;21.35;2.35;;;12.30;99.90;;;;;;4941814;29;20118;-96
2022/10/31 09:07:40;;;;;;;16.25;2.03;;;12.40;99.90;;;;;;4958041;29;20027;-96
2022/10/31 09:10:06;;;;;;;18.00;2.45;;;12.40;99.90;;;;;;4941544;29;20023;-95
2022/10/31 09:12:41;;;;;;;;;;;;;;;;;;;;;
2022/10/31 09:15:08;;;;;;;20.23;2.58;;;12.40;99.90;;;;;;4965318;28;20035;-94
2022/10/31 09:17:34;;;;;;;20.42;3.55;;;12.40;99.90;;;;;;4963486;28;20026;-94
2022/10/31 09:19:59;;;;;;;16.10;2.15;;;12.40;99.90;;;;;;4962438;28;20113;-95
2022/10/31 09:22:25;;;;;;;17.00;2.10;;;12.40;99.90;;;;;;4976716;28;20062;-95
2022/10/31 09:24:58;;;;;;;20.38;2.45;;;12.50;99.90;;;;;;4939859;29;20545;-95
2022/10/31 09:27:24;;;;;;;20.33;2.80;;;12.50;99.90;;;;;;4939902;29;20429;-92
2022/10/31 09:29:49;;;;;;;21.30;2.63;;;12.50;99.90;;;;;;4939853;29;20031;-94
2022/10/31 09:32:15;;;;;;;21.27;3.97;;;12.50;99.90;;;;;;4945529;29;20027;-96
2022/10/31 09:34:41;;;;;;;15.95;2.15;;;12.50;99.90;;;;;;4945352;29;20023;-94
2022/10/31 09:37:06;;;;;;;17.67;3.00;;;12.50;99.90;;;;;;4947520;29;20035;-94
2022/10/31 09:39:41;;;;;;;15.95;2.17;;;12.50;99.90;;;;;;4964046;28;20043;-96
2022/10/31 09:42:49;;;;;;;16.02;2.60;;;12.60;99.90;;;;;;4946871;29;20023;-94
2022/10/31 09:45:39;;;;;;;18.95;2.30;;;12.60;99.90;;;;;;4945550;29;20078;-95
2022/10/31 09:48:13;;;;;;;21.98;3.47;;;12.70;99.90;;;;;;4932751;29;20023;-95
2022/10/31 09:50:47;;;;;;;12.68;2.10;;;12.90;99.90;;;;;;4949458;29;20078;-95
2022/10/31 09:53:31;;;;;;;14.02;2.00;;;13.00;99.90;;;;;;4928398;29;20039;-94
2022/10/31 09:56:16;;;;;;;13.05;1.90;;;13.10;99.90;;;;;;4940407;29;20070;-95
2022/10/31 09:58:55;;;;;;;15.48;2.70;;;13.20;99.90;;;;;;4934823;29;20106;-95
2022/10/31 10:01:59;;;;;;;17.35;2.25;;;13.30;99.90;;;;;;4949347;29;20039;-94
2022/10/31 10:05:04;;;;;;;13.68;1.85;;;13.40;99.90;;;;;;4909237;29;20051;-96
2022/10/31 10:07:59;;;;;;;13.98;1.90;;;13.40;99.90;;;;;;4959156;28;20039;-94
2022/10/31 10:10:29;;;;;;;9.95;1.70;;;13.50;99.90;;;;;;4938628;29;20028;-93
2022/10/31 10:13:31;;;;;;;16.83;2.20;;;13.50;99.90;;;;;;4945633;29;20090;-96
2022/10/31 10:16:33;;;;;;;15.43;2.33;;;13.50;99.90;;;;;;4930085;29;20035;-95
2022/10/31 10:19:23;;;;;;;17.92;2.63;;;13.50;99.90;;;;;;4965230;28;20131;-96
2022/10/31 10:22:02;;;;;;;19.03;2.10;;;13.50;99.90;;;;;;4975202;28;20047;-95
2022/10/31 10:25:13;;;;;;;14.23;1.95;;;13.50;99.90;;;;;;4977695;28;20042;-93
2022/10/31 10:28:05;;;;;;;15.95;2.08;;;13.50;99.90;;;;;;4953055;28;20046;-94
2022/10/31 10:31:01;;;;;;;19.08;3.33;;;13.50;99.90;;;;;;4946455;29;20539;-95
2022/10/31 10:33:35;;;;;;;27.35;2.40;;;13.50;99.90;;;;;;4944063;29;20067;-95
2022/10/31 10:36:12;;;;;;;11.48;1.73;;;13.50;99.90;;;;;;4942821;29;20134;-96
2022/10/31 10:38:53;;;;;;;12.85;2.35;;;13.50;99.90;;;;;;4943190;29;20067;-96
2022/10/31 10:56:07;;;;;;;9.75;1.90;;;13.90;99.90;;;;;;6063593;23;20048;-94
2022/10/31 10:58:32;;;;;;;;;;;14.10;99.90;;;;;;4999694;28;20542;-95
2022/10/31 11:00:58;;;;;;;15.38;2.15;;;14.30;99.90;;;;;;5000286;28;19906;-95
2022/10/31 11:03:32;;;;;;;19.08;2.22;;;14.40;99.90;;;;;;5000460;28;20029;-94
2022/10/31 11:05:59;;;;;;;15.10;2.60;;;14.60;99.90;;;;;;4995610;28;20053;-96
2022/10/31 11:08:33;;;;;;;19.13;1.73;;;14.60;99.90;;;;;;4988137;28;20034;-94
2022/10/31 11:11:16;;;;;;;17.33;1.73;;;14.80;99.90;;;;;;4998251;28;20022;-95
2022/10/31 11:13:45;;;;;;;15.40;1.73;;;14.90;99.90;;;;;;4990779;28;20037;-94
2022/10/31 11:16:29;;;;;;;15.48;2.72;;;15.00;99.90;;;;;;4997591;28;20060;-94
2022/10/31 11:19:27;;;;;;;19.52;1.98;;;15.30;99.90;;;;;;4989156;28;20034;-93
2022/10/31 11:21:53;;;;;;;12.75;2.00;;;15.50;99.90;;;;;;5008578;28;20038;-95
2022/10/31 11:24:29;;;;;;;8.52;2.15;;;15.80;99.90;;;;;;4977876;28;20064;-96
2022/10/31 11:27:30;;;;;;;15.35;1.83;;;16.00;99.90;;;;;;4968895;28;20014;-95
2022/10/31 11:30:08;;;;;;;10.23;1.70;;;16.40;99.90;;;;;;4938443;29;20043;-95
2022/10/31 11:32:58;;;;;;;;;;;;;;;;;;;;;
2022/10/31 11:35:27;;;;;;;10.80;1.85;;;17.00;99.90;;;;;;4926969;29;20032;-94
2022/10/31 11:41:36;;;;;;;11.15;1.75;;;16.80;99.90;;;;;;4905698;29;20054;-95
2022/10/31 11:44:16;;;;;;;11.75;2.00;;;16.60;99.90;;;;;;4931396;29;20572;-96
2022/10/31 11:46:53;;;;;;;12.70;2.05;;;16.50;99.90;;;;;;4921256;29;20036;-95
2022/10/31 11:49:40;;;;;;;12.10;2.25;;;16.30;99.90;;;;;;4936270;29;20133;-95
2022/10/31 11:52:12;;;;;;;12.40;1.58;;;16.20;99.90;;;;;;4923829;29;20031;-94
2022/10/31 11:54:57;;;;;;;12.50;1.15;;;16.10;99.90;;;;;;4934530;28;20044;-94
2022/10/31 11:57:48;;;;;;;16.23;2.08;;;16.00;99.90;;;;;;4939333;29;20076;-94
2022/10/31 12:00:23;;;;;;;11.98;1.98;;;16.10;99.90;;;;;;4942358;29;20059;-94
2022/10/31 12:02:51;;;;;;;15.95;1.70;;;16.40;99.90;;;;;;4928930;28;20054;-95
2022/10/31 12:05:27;;;;;;;16.90;1.65;;;16.40;99.90;;;;;;4951841;28;20030;-94
2022/10/31 12:08:24;;;;;;;17.33;2.28;;;16.30;99.90;;;;;;4980555;28;20030;-95
2022/10/31 12:11:30;;;;;;;13.80;2.05;;;16.00;99.90;;;;;;4963474;28;20010;-95
2022/10/31 12:14:26;;;;;;;16.23;2.55;;;15.90;99.90;;;;;;5001717;28;20025;-94
2022/10/31 12:17:22;;;;;;;17.25;1.92;;;15.70;99.90;;;;;;4989712;28;20035;-95
2022/10/31 12:20:17;;;;;;;13.80;1.90;;;15.60;99.90;;;;;;4954459;28;20076;-95
2022/10/31 12:22:58;;;;;;;14.55;2.00;;;15.50;99.90;;;;;;4967752;28;20038;-96
2022/10/31 12:25:39;;;;;;;14.63;2.17;;;15.30;99.90;;;;;;4963643;28;20035;-95
2022/10/31 12:28:16;;;;;;;;;;;15.20;99.90;;;;;;4966891;28;20027;-94
2022/10/31 12:31:00;;;;;;;13.90;2.25;;;15.10;99.90;;;;;;4962990;28;19906;-95
2022/10/31 12:33:26;;;;;;;13.82;1.98;;;15.10;99.90;;;;;;4982361;28;20035;-96
2022/10/31 12:36:27;;;;;;;14.43;1.85;;;15.10;99.90;;;;;;4967121;28;20026;-95
2022/10/31 12:39:29;;;;;;;9.77;1.90;;;15.10;99.90;;;;;;4980683;28;20034;-95
2022/10/31 12:42:31;;;;;;;13.45;1.80;;;15.00;99.90;;;;;;4989963;28;20042;-95
2022/10/31 12:45:18;;;;;;;13.70;1.98;;;15.00;99.90;;;;;;4986364;28;20022;-94
2022/10/31 12:48:08;;;;;;;12.52;2.20;;;14.90;99.90;;;;;;4990412;28;20050;-96
2022/10/31 12:51:06;;;;;;;11.33;2.07;;;14.80;99.90;;;;;;4988448;28;20049;-95
2022/10/31 12:54:05;;;;;;;12.23;2.30;;;14.80;99.90;;;;;;4985181;28;20555;-96
2022/10/31 12:57:07;;;;;;;7.28;2.28;;;14.70;99.90;;;;;;4981804;28;20108;-95
2022/10/31 12:59:54;;;;;;;21.85;2.00;;;14.70;99.90;;;;;;4977198;28;20038;-95
2022/10/31 13:02:50;;;;;;;17.45;2.83;;;14.60;99.90;;;;;;4965999;28;20058;-94
2022/10/31 13:05:22;;;;;;;14.35;2.50;;;14.60;99.90;;;;;;4980411;28;20029;-95
2022/10/31 13:08:00;;;;;;;15.77;2.78;;;14.60;99.90;;;;;;4979754;28;20487;-94
2022/10/31 13:10:35;;;;;;;12.05;1.90;;;14.60;99.90;;;;;;4981894;28;20049;-96
2022/10/31 13:13:42;;;;;;;15.23;2.28;;;14.60;99.90;;;;;;4979838;28;20022;-96
2022/10/31 13:16:15;;;;;;;11.93;1.95;;;14.70;99.90;;;;;;4980579;28;20038;-96
2022/10/31 13:19:30;;;;;;;10.52;2.30;;;14.60;99.90;;;;;;4982632;28;20121;-96
2022/10/31 13:22:17;;;;;;;15.68;3.10;;;14.60;99.90;;;;;;5000204;28;20093;-95
2022/10/31 13:25:24;;;;;;;15.10;2.00;;;14.60;99.90;;;;;;4983924;28;20034;-95
2022/10/31 13:27:56;;;;;;;14.15;2.55;;;14.60;99.90;;;;;;4979396;28;20034;-96